Aviation Digital Data Service (ADDS)

Output produced by TAFs form (2224 UTC 24 June 2018)
found at http://www.aviationweather.gov/adds/tafs/
 
KANB 242153Z AUTO 24007KT 10SM CLR 32/23 A3000 RMK AO2 SLP146 T03220228
KANB 241854Z 2419/2518 23009KT P6SM SCT035 
     FM250800 00000KT 4SM BR SKC 
     FM251400 26007KT P6SM BKN250